Time;durP1;ratioP1;P1;durP2;ratioP2;P2;SDS_P1;SDS_P2;PMS_P1;PMS_P2;Temp;Humidity;BMP_temperature;BMP_pressure;BME280_temperature;BME280_humidity;BME280_pressure;Samples;Min_cycle;Max_cycle;Signal;HPM_P1;HPM_P2
2023/10/02 00:01:06;;;;;;;;;;;19.30;72.40;;;;;;5094690;28;20255;-69
2023/10/02 00:03:33;;;;;;;;;;;19.30;72.40;;;;;;5112596;28;19920;-70
2023/10/02 00:05:58;;;;;;;;;;;19.30;72.40;;;;;;5094724;28;19919;-69
2023/10/02 00:08:31;;;;;;;;;;;19.30;72.40;;;;;;5094381;28;20394;-70
2023/10/02 00:11:05;;;;;;;;;;;19.40;72.50;;;;;;5094693;28;19964;-69
2023/10/02 00:13:32;;;;;;;;;;;19.30;72.40;;;;;;5094330;28;19931;-71
2023/10/02 00:15:59;;;;;;;;;;;19.30;72.50;;;;;;5112515;28;20298;-70
2023/10/02 00:18:27;;;;;;;;;;;19.30;72.50;;;;;;5094446;28;19923;-70
2023/10/02 00:21:17;;;;;;;;;;;19.30;72.50;;;;;;5094253;28;19926;-70
2023/10/02 00:23:59;;;;;;;;;;;19.30;72.50;;;;;;5094384;28;19943;-70
2023/10/02 00:26:24;;;;;;;;;;;19.30;72.50;;;;;;5094358;28;19924;-70
2023/10/02 00:28:50;;;;;;;;;;;19.30;72.50;;;;;;5112632;28;19942;-70
2023/10/02 00:31:32;;;;;;;;;;;19.30;72.50;;;;;;5094597;28;19971;-70
2023/10/02 00:33:59;;;;;;;;;;;19.30;72.50;;;;;;5094040;28;19923;-70
2023/10/02 00:36:25;;;;;;;;;;;19.30;72.50;;;;;;5094693;28;20007;-70
2023/10/02 00:38:50;;;;;;;;;;;19.30;72.50;;;;;;5094008;28;20007;-70
2023/10/02 00:41:16;;;;;;;;;;;19.30;72.50;;;;;;5131449;27;19926;-69
2023/10/02 00:43:45;;;;;;;;;;;19.30;72.50;;;;;;5097979;28;19928;-69
2023/10/02 00:46:23;;;;;;;;;;;19.30;72.50;;;;;;5097904;28;19949;-70
2023/10/02 00:48:50;;;;;;;;;;;19.30;72.50;;;;;;5116070;28;20306;-69
2023/10/02 00:51:15;;;;;;;;;;;19.30;72.60;;;;;;5098073;28;19919;-70
2023/10/02 00:53:46;;;;;;;;;;;19.30;72.60;;;;;;5097510;28;20260;-70
2023/10/02 00:56:19;;;;;;;;;;;19.30;72.60;;;;;;5097948;28;19920;-69
2023/10/02 00:58:54;;;;;;;;;;;19.30;72.70;;;;;;5097862;28;20320;-70
2023/10/02 01:01:20;;;;;;;;;;;19.60;72.60;;;;;;5097951;28;20287;-69
2023/10/02 01:06:33;;;;;;;;;;;20.70;70.30;;;;;;5097630;28;19927;-70
2023/10/02 01:09:00;;;;;;;;;;;21.60;68.10;;;;;;5115769;28;19920;-70
2023/10/02 01:11:25;;;;;;;;;;;22.40;65.60;;;;;;5097408;28;19927;-70
2023/10/02 01:13:53;;;;;;;;;;;23.20;63.40;;;;;;5097361;28;19923;-69
2023/10/02 01:16:20;;;;;;;;;;;23.80;61.40;;;;;;5115554;28;19924;-70
2023/10/02 01:18:48;;;;;;;;;;;24.30;59.90;;;;;;5115411;28;19972;-70
2023/10/02 01:21:14;;;;;;;;;;;24.70;58.70;;;;;;5097338;28;19927;-71
2023/10/02 01:24:16;;;;;;;;;;;25.00;57.80;;;;;;5097424;28;19927;-69
2023/10/02 01:26:42;;;;;;;;;;;25.20;57.30;;;;;;5097047;28;19920;-70
2023/10/02 01:29:10;;;;;;;;;;;25.20;57.00;;;;;;5097380;28;19924;-69
2023/10/02 01:31:45;;;;;;;;;;;25.10;57.10;;;;;;5115577;28;19919;-69
2023/10/02 01:34:25;;;;;;;;;;;25.00;57.30;;;;;;5096977;28;19924;-69
2023/10/02 01:36:51;;;;;;;;;;;24.70;57.60;;;;;;5097268;28;20012;-70
2023/10/02 01:39:17;;;;;;;;;;;24.50;58.20;;;;;;5096991;28;19926;-70
2023/10/02 01:41:52;;;;;;;;;;;24.30;58.60;;;;;;5096873;28;19919;-70
2023/10/02 01:44:20;;;;;;;;;;;24.10;59.20;;;;;;5114996;28;19986;-69
2023/10/02 01:46:49;;;;;;;;;;;23.80;59.80;;;;;;5115435;28;19958;-70
2023/10/02 01:49:24;;;;;;;;;;;23.60;60.10;;;;;;5096565;28;19930;-70
2023/10/02 01:51:50;;;;;;;;;;;23.40;60.70;;;;;;5096578;28;19920;-70
2023/10/02 01:54:15;;;;;;;;;;;23.20;61.20;;;;;;5096567;28;19952;-70
2023/10/02 01:56:45;;;;;;;;;;;23.00;61.70;;;;;;5096731;28;19993;-69
2023/10/02 01:59:14;;;;;;;;;;;22.80;62.20;;;;;;5096520;28;19968;-70
2023/10/02 02:02:12;;;;;;;;;;;22.60;62.70;;;;;;5096613;28;20390;-69
2023/10/02 02:04:28;;;;;;;;;;;22.50;63.10;;;;;;5114522;28;20371;-70
2023/10/02 02:06:56;;;;;;;;;;;22.30;63.50;;;;;;5096318;28;20398;-69
2023/10/02 02:09:23;;;;;;;;;;;22.10;63.80;;;;;;5114563;28;19924;-70
2023/10/02 02:12:05;;;;;;;;;;;22.00;64.30;;;;;;5096417;28;20414;-70
2023/10/02 02:14:41;;;;;;;;;;;21.80;65.30;;;;;;5096240;28;20379;-70
2023/10/02 02:17:10;;;;;;;;;;;21.70;65.10;;;;;;5096305;28;19939;-71
2023/10/02 02:19:37;;;;;;;;;;;21.60;65.40;;;;;;5114256;28;20339;-69
2023/10/02 02:22:02;;;;;;;;;;;21.40;65.70;;;;;;5096221;28;19920;-71
2023/10/02 02:24:34;;;;;;;;;;;21.40;66.00;;;;;;5096292;28;20019;-70
2023/10/02 02:27:04;;;;;;;;;;;21.20;66.20;;;;;;5114138;28;19920;-70
2023/10/02 02:29:30;;;;;;;;;;;21.20;66.50;;;;;;5114273;28;19972;-69
2023/10/02 02:31:56;;;;;;;;;;;21.10;66.70;;;;;;5095750;28;19919;-69
2023/10/02 02:34:23;;;;;;;;;;;21.10;66.90;;;;;;5113985;28;20022;-70
2023/10/02 02:36:49;;;;;;;;;;;21.00;67.20;;;;;;5114165;28;19966;-69
2023/10/02 02:39:15;;;;;;;;;;;20.90;67.30;;;;;;5114096;28;20295;-69
2023/10/02 02:41:49;;;;;;;;;;;20.90;67.50;;;;;;5129654;27;19920;-70
2023/10/02 02:44:47;;;;;;;;;;;20.80;67.60;;;;;;5095621;28;19924;-70
2023/10/02 02:47:07;;;;;;;;;;;20.80;67.80;;;;;;5095585;28;19919;-70
2023/10/02 02:49:48;;;;;;;;;;;20.70;68.00;;;;;;5095814;28;19920;-70
2023/10/02 02:52:16;;;;;;;;;;;20.70;68.10;;;;;;5113672;28;19927;-70
2023/10/02 02:54:44;;;;;;;;;;;20.60;68.30;;;;;;5095132;28;20408;-70
2023/10/02 02:57:12;;;;;;;;;;;20.60;68.40;;;;;;5113575;28;19927;-70
2023/10/02 02:59:38;;;;;;;;;;;20.50;68.50;;;;;;5095466;28;20290;-70
2023/10/02 03:02:21;;;;;;;;;;;20.50;68.60;;;;;;5095379;28;20018;-70
2023/10/02 03:04:47;;;;;;;;;;;20.40;68.60;;;;;;5095361;28;19926;-69
2023/10/02 03:07:44;;;;;;;;;;;20.40;68.80;;;;;;5095138;28;19924;-70
2023/10/02 03:09:58;;;;;;;;;;;20.40;68.90;;;;;;5113214;28;19954;-70
2023/10/02 03:12:24;;;;;;;;;;;20.40;69.00;;;;;;5095280;28;20371;-70
2023/10/02 03:14:54;;;;;;;;;;;20.40;69.10;;;;;;5113414;28;20367;-70
2023/10/02 03:17:30;;;;;;;;;;;20.30;69.20;;;;;;5094989;28;19924;-71
2023/10/02 03:19:58;;;;;;;;;;;20.30;69.30;;;;;;5095158;28;19923;-70
2023/10/02 03:22:24;;;;;;;;;;;20.30;69.40;;;;;;5095330;28;20370;-69
2023/10/02 03:24:51;;;;;;;;;;;20.20;69.50;;;;;;5094899;28;19920;-69
2023/10/02 03:27:17;;;;;;;;;;;20.30;69.70;;;;;;5095157;28;19972;-69
2023/10/02 03:29:43;;;;;;;;;;;20.40;69.40;;;;;;5095137;28;19919;-70
2023/10/02 03:32:11;;;;;;;;;;;20.50;69.30;;;;;;5095120;28;19920;-70
2023/10/02 03:34:38;;;;;;;;;;;20.60;69.00;;;;;;5094769;28;20053;-70
2023/10/02 03:37:13;;;;;;;;;;;20.80;68.80;;;;;;5095042;28;19962;-69
2023/10/02 03:40:20;;;;;;;;;;;20.90;68.40;;;;;;5112869;28;20310;-70
2023/10/02 03:42:25;;;;;;;;;;;21.00;67.90;;;;;;5094896;28;20010;-69
2023/10/02 03:44:56;;;;;;;;;;;21.20;67.50;;;;;;5112983;28;19971;-69
2023/10/02 03:47:22;;;;;;;;;;;21.30;67.30;;;;;;5094623;28;19945;-69
2023/10/02 03:49:49;;;;;;;;;;;21.40;66.90;;;;;;5112744;28;20302;-70
2023/10/02 03:52:16;;;;;;;;;;;21.50;66.60;;;;;;5094530;28;20402;-70
2023/10/02 03:54:43;;;;;;;;;;;21.50;66.40;;;;;;5094220;28;19976;-69
2023/10/02 03:57:11;;;;;;;;;;;21.60;66.20;;;;;;5094475;28;19964;-69
2023/10/02 03:59:51;;;;;;;;;;;21.60;66.10;;;;;;5112727;28;19984;-69
2023/10/02 04:02:25;;;;;;;;;;;21.60;66.70;;;;;;5094490;28;19998;-69
2023/10/02 04:04:51;;;;;;;;;;;21.70;65.90;;;;;;5094369;28;19919;-70
2023/10/02 04:07:17;;;;;;;;;;;21.60;65.90;;;;;;5094451;28;19924;-69
2023/10/02 04:09:49;;;;;;;;;;;21.60;65.80;;;;;;5094733;28;20317;-70
2023/10/02 04:12:17;;;;;;;;;;;21.60;65.90;;;;;;5112633;28;19920;-70
2023/10/02 04:14:43;;;;;;;;;;;21.60;66.00;;;;;;5112992;28;20018;-69
2023/10/02 04:20:04;;;;;;;;;;;21.60;66.00;;;;;;5090369;28;20024;-70
2023/10/02 04:22:31;;;;;;;;;;;21.50;66.00;;;;;;5088661;28;19946;-69
2023/10/02 04:25:04;;;;;;;;;;;21.50;66.10;;;;;;5088492;28;19927;-70
2023/10/02 04:28:08;;;;;;;;;;;21.50;66.10;;;;;;5072034;28;19956;-69
2023/10/02 04:32:59;;;;;;;;;;;21.50;66.20;;;;;;5089936;28;19912;-69
2023/10/02 04:35:57;;;;;;;;;;;21.40;66.20;;;;;;5088510;28;19963;-69
2023/10/02 04:38:14;;;;;;;;;;;21.40;66.30;;;;;;5088331;28;19963;-71
2023/10/02 04:40:55;;;;;;;;;;;21.40;66.40;;;;;;5088395;28;19924;-71
2023/10/02 04:43:25;;;;;;;;;;;21.40;66.50;;;;;;5088718;28;19921;-71
2023/10/02 04:45:52;;;;;;;;;;;21.30;66.40;;;;;;5088400;28;19927;-71
2023/10/02 04:48:27;;;;;;;;;;;21.30;66.50;;;;;;5088364;28;19925;-71
2023/10/02 04:50:56;;;;;;;;;;;21.30;66.50;;;;;;5088412;28;20437;-72
2023/10/02 04:53:22;;;;;;;;;;;21.20;66.50;;;;;;5088295;28;19920;-72
2023/10/02 04:55:49;;;;;;;;;;;21.30;66.60;;;;;;5088193;28;19920;-71
2023/10/02 04:58:19;;;;;;;;;;;21.30;66.60;;;;;;5088456;28;19963;-71
2023/10/02 05:03:51;;;;;;;;;;;21.20;66.60;;;;;;5110305;27;19912;-70
2023/10/02 05:06:39;;;;;;;;;;;21.20;66.60;;;;;;5110259;28;19920;-69
2023/10/02 05:12:22;;;;;;;;;;;21.20;66.60;;;;;;5130747;27;20381;-70
2023/10/02 05:14:34;;;;;;;;;;;21.20;66.60;;;;;;5129366;28;20010;-69
2023/10/02 05:17:16;;;;;;;;;;;21.20;66.60;;;;;;5129649;28;19973;-70
2023/10/02 05:19:57;;;;;;;;;;;21.30;66.60;;;;;;5164518;27;19972;-70
2023/10/02 05:22:24;;;;;;;;;;;21.20;66.60;;;;;;5130523;27;19946;-70
2023/10/02 05:24:58;;;;;;;;;;;21.20;66.60;;;;;;5164514;27;19975;-70
2023/10/02 05:27:29;;;;;;;;;;;21.30;66.60;;;;;;5129480;28;19926;-70
2023/10/02 05:29:55;;;;;;;;;;;21.30;66.60;;;;;;5129184;28;20147;-72
2023/10/02 05:32:23;;;;;;;;;;;21.20;66.50;;;;;;5129435;28;19919;-70
2023/10/02 05:37:46;;;;;;;;;;;21.30;66.50;;;;;;5089775;28;19913;-72
2023/10/02 05:45:40;;;;;;;;;;;21.10;66.90;;;;;;5107568;27;19912;-70
2023/10/02 05:48:07;;;;;;;;;;;21.00;67.30;;;;;;5107381;28;19923;-71
2023/10/02 05:50:33;;;;;;;;;;;20.90;67.40;;;;;;5107043;28;19920;-74
2023/10/02 05:52:59;;;;;;;;;;;20.90;67.60;;;;;;5106082;28;19927;-71
2023/10/02 05:55:25;;;;;;;;;;;20.80;67.80;;;;;;5106265;28;19989;-71
2023/10/02 05:57:54;;;;;;;;;;;20.80;68.10;;;;;;5093374;28;19951;-71
2023/10/02 06:00:20;;;;;;;;;;;20.70;68.20;;;;;;5090690;28;19924;-71
2023/10/02 06:02:57;;;;;;;;;;;20.70;68.50;;;;;;5091123;28;19920;-72
2023/10/02 06:05:23;;;;;;;;;;;20.70;68.50;;;;;;5098102;28;19985;-71
2023/10/02 06:07:51;;;;;;;;;;;20.70;68.70;;;;;;5097184;28;19920;-70
2023/10/02 06:10:25;;;;;;;;;;;20.70;68.70;;;;;;5098799;28;19947;-70
2023/10/02 06:13:03;;;;;;;;;;;20.80;68.70;;;;;;5101687;28;19924;-70
2023/10/02 06:15:47;;;;;;;;;;;21.00;68.60;;;;;;5092750;28;19926;-70
2023/10/02 06:18:24;;;;;;;;;;;21.10;68.20;;;;;;5093998;28;20473;-70
2023/10/02 06:21:00;;;;;;;;;;;21.30;67.80;;;;;;5099514;28;19924;-70
2023/10/02 06:23:29;;;;;;;;;;;21.40;67.40;;;;;;5102362;28;19924;-72
2023/10/02 06:25:58;;;;;;;;;;;21.40;67.10;;;;;;5106584;28;19920;-70
2023/10/02 06:28:27;;;;;;;;;;;21.50;66.90;;;;;;5082989;28;20348;-70
2023/10/02 06:30:54;;;;;;;;;;;21.50;66.70;;;;;;5089321;28;19932;-70
2023/10/02 06:33:21;;;;;;;;;;;21.60;66.60;;;;;;5086728;28;19928;-70
2023/10/02 06:35:56;;;;;;;;;;;21.60;66.50;;;;;;5113606;27;19924;-70
2023/10/02 06:38:22;;;;;;;;;;;21.60;66.50;;;;;;5083541;28;19927;-70
2023/10/02 06:41:03;;;;;;;;;;;21.60;66.40;;;;;;5094153;28;19923;-70
2023/10/02 06:43:28;;;;;;;;;;;21.60;66.40;;;;;;5089354;28;20029;-70
2023/10/02 06:46:06;;;;;;;;;;;21.60;66.40;;;;;;5090225;28;19974;-72
2023/10/02 06:48:34;;;;;;;;;;;21.60;66.40;;;;;;5097116;28;19942;-70
2023/10/02 06:51:00;;;;;;;;;;;21.50;66.40;;;;;;5122785;27;20201;-74
2023/10/02 06:53:26;;;;;;;;;;;21.50;66.40;;;;;;5095576;28;19973;-73
2023/10/02 06:55:58;;;;;;;;;;;21.50;66.50;;;;;;5081638;28;20066;-70
2023/10/02 06:58:25;;;;;;;;;;;21.50;66.60;;;;;;5076940;28;19927;-72
2023/10/02 07:01:08;;;;;;;;;;;21.40;66.70;;;;;;5073280;28;19924;-69
2023/10/02 07:03:39;;;;;;;;;;;21.40;66.80;;;;;;5074480;28;19932;-68
2023/10/02 07:06:07;;;;;;;;;;;21.40;66.90;;;;;;5072856;28;19928;-74
2023/10/02 07:08:34;;;;;;;;;;;21.40;66.90;;;;;;5074001;28;20336;-77
2023/10/02 07:11:09;;;;;;;;;;;21.40;66.90;;;;;;5108533;27;20616;-70
2023/10/02 07:13:35;;;;;;;;;;;21.40;66.90;;;;;;5093989;28;19967;-70
2023/10/02 07:16:00;;;;;;;;;;;21.40;67.00;;;;;;5079277;28;20058;-71
2023/10/02 07:18:49;;;;;;;;;;;21.30;67.10;;;;;;5083703;28;19923;-69
2023/10/02 07:21:13;;;;;;;;;;;21.40;67.30;;;;;;5082373;28;19950;-73
2023/10/02 07:23:39;;;;;;;;;;;21.30;67.50;;;;;;5076310;28;19928;-75
2023/10/02 07:26:05;;;;;;;;;;;21.40;67.50;;;;;;5071420;28;20523;-71
2023/10/02 07:28:31;;;;;;;;;;;21.30;67.60;;;;;;5071352;28;20006;-71
2023/10/02 07:30:57;;;;;;;;;;;21.30;67.70;;;;;;5070718;28;19982;-73
2023/10/02 07:33:23;;;;;;;;;;;21.30;67.70;;;;;;5071531;28;19921;-71
2023/10/02 07:35:56;;;;;;;;;;;21.30;67.90;;;;;;5074997;28;19929;-71
2023/10/02 07:38:22;;;;;;;;;;;21.20;68.00;;;;;;5073723;28;19928;-71
2023/10/02 07:40:48;;;;;;;;;;;21.20;68.20;;;;;;5077153;28;19927;-71
2023/10/02 07:43:18;;;;;;;;;;;21.20;68.40;;;;;;5079791;28;20354;-71
2023/10/02 07:45:45;;;;;;;;;;;21.10;68.40;;;;;;5071092;28;19925;-70
2023/10/02 07:48:12;;;;;;;;;;;21.10;68.60;;;;;;5072401;28;19924;-70
2023/10/02 07:50:39;;;;;;;;;;;21.10;68.70;;;;;;5071349;28;20015;-72
2023/10/02 07:53:05;;;;;;;;;;;21.10;68.70;;;;;;5073458;28;20447;-70
2023/10/02 07:55:34;;;;;;;;;;;21.00;68.70;;;;;;5062086;28;19986;-69
2023/10/02 07:58:00;;;;;;;;;;;21.00;68.80;;;;;;5076859;28;19963;-69
2023/10/02 08:00:37;;;;;;;;;;;21.00;68.80;;;;;;5072697;28;19924;-71
2023/10/02 08:03:04;;;;;;;;;;;21.00;68.80;;;;;;5075797;28;20014;-71
2023/10/02 08:05:33;;;;;;;;;;;21.00;68.90;;;;;;5077874;28;19939;-71
2023/10/02 08:08:16;;;;;;;;;;;21.00;69.00;;;;;;5071338;28;20422;-71
2023/10/02 08:11:02;;;;;;;;;;;20.90;69.20;;;;;;5083735;28;20436;-70
2023/10/02 08:13:33;;;;;;;;;;;20.90;69.40;;;;;;5072072;28;20855;-74
2023/10/02 08:16:01;;;;;;;;;;;20.90;69.70;;;;;;5080899;28;20001;-79
2023/10/02 08:18:27;;;;;;;;;;;20.90;70.00;;;;;;5073501;28;19924;-79
2023/10/02 08:20:55;;;;;;;;;;;20.90;70.20;;;;;;5075164;28;20368;-71
2023/10/02 08:23:23;;;;;;;;;;;20.90;70.40;;;;;;5075206;28;19931;-74
2023/10/02 08:26:06;;;;;;;;;;;20.90;70.50;;;;;;5072770;28;19921;-79
2023/10/02 08:28:35;;;;;;;;;;;20.90;70.70;;;;;;5073773;28;19932;-73
2023/10/02 08:31:02;;;;;;;;;;;20.90;70.90;;;;;;5078239;28;19924;-78
2023/10/02 08:33:30;;;;;;;;;;;20.90;71.00;;;;;;5073400;28;20407;-76
2023/10/02 08:35:57;;;;;;;;;;;20.90;71.10;;;;;;5072899;28;19925;-76
2023/10/02 08:38:23;;;;;;;;;;;20.90;71.10;;;;;;5076348;28;19939;-78
2023/10/02 08:40:57;;;;;;;;;;;20.90;71.10;;;;;;5071315;28;19928;-78
2023/10/02 08:43:23;;;;;;;;;;;20.80;71.10;;;;;;5071454;28;19924;-77
2023/10/02 08:45:50;;;;;;;;;;;20.80;71.20;;;;;;5105012;27;19931;-77
2023/10/02 08:48:19;;;;;;;;;;;20.80;71.30;;;;;;5104811;27;19927;-76
2023/10/02 08:50:48;;;;;;;;;;;20.80;71.30;;;;;;5070110;28;20375;-70
2023/10/02 08:53:20;;;;;;;;;;;20.70;71.40;;;;;;5069789;28;19935;-70
2023/10/02 08:58:27;;;;;;;;;;;20.70;71.50;;;;;;5077493;28;19964;-72
2023/10/02 09:03:49;;;;;;;;;;;20.70;71.70;;;;;;5077134;27;19923;-74
2023/10/02 09:06:32;;;;;;;;;;;20.70;71.70;;;;;;5101152;28;20405;-73
2023/10/02 09:11:44;;;;;;;;;;;20.60;71.80;;;;;;5067202;28;20645;-70
2023/10/02 09:14:42;;;;;;;;;;;20.70;71.90;;;;;;5054411;28;19936;-70
2023/10/02 09:17:33;;;;;;;;;;;20.70;71.90;;;;;;5057222;28;19935;-74
2023/10/02 09:19:53;;;;;;;;;;;20.70;72.20;;;;;;5054803;28;20016;-79
2023/10/02 09:22:20;;;;;;;;;;;20.70;72.20;;;;;;5100353;28;19928;-75
2023/10/02 09:24:57;;;;;;;;;;;20.70;72.40;;;;;;5100725;28;19928;-76
2023/10/02 09:27:24;;;;;;;;;;;20.70;72.50;;;;;;5056542;28;19960;-76
2023/10/02 09:30:15;;;;;;;;;;;20.70;72.60;;;;;;5070912;28;19924;-74
2023/10/02 09:32:47;;;;;;;;;;;20.70;72.60;;;;;;5089452;28;19985;-74
2023/10/02 09:35:21;;;;;;;;;;;20.70;72.60;;;;;;5063390;28;19924;-74
2023/10/02 09:37:49;;;;;;;;;;;20.70;72.90;;;;;;5064952;28;20612;-72
2023/10/02 09:40:15;;;;;;;;;;;20.70;73.50;;;;;;5098166;28;19924;-72
2023/10/02 09:42:45;;;;;;;;;;;20.70;72.80;;;;;;5061539;28;19934;-70
2023/10/02 09:45:14;;;;;;;;;;;20.70;72.70;;;;;;5098438;28;19936;-73
2023/10/02 09:47:42;;;;;;;;;;;20.70;72.80;;;;;;5065596;28;20019;-75
2023/10/02 09:50:12;;;;;;;;;;;20.70;73.00;;;;;;5097701;28;19929;-74
2023/10/02 09:52:47;;;;;;;;;;;20.80;73.00;;;;;;5099803;28;20015;-70
2023/10/02 09:55:24;;;;;;;;;;;20.80;73.00;;;;;;5062217;28;19986;-72
2023/10/02 09:57:51;;;;;;;;;;;20.80;73.00;;;;;;5100778;28;20005;-73
2023/10/02 10:00:48;;;;;;;;;;;20.80;73.10;;;;;;5060057;28;19967;-71
2023/10/02 10:03:22;;;;;;;;;;;20.80;73.30;;;;;;5064185;28;19929;-72
2023/10/02 10:06:08;;;;;;;;;;;20.80;73.20;;;;;;5057393;28;19965;-74
2023/10/02 10:11:39;;;;;;;;;;;20.80;73.40;;;;;;5065862;28;19928;-70
2023/10/02 10:14:35;;;;;;;;;;;20.80;73.60;;;;;;5054101;28;19924;-71
2023/10/02 10:17:21;;;;;;;;;;;20.80;73.80;;;;;;5041882;28;19935;-72
2023/10/02 10:22:36;;;;;;;;;;;20.80;73.80;;;;;;5087880;27;19934;-73
2023/10/02 10:36:09;;;;;;;;;;;20.80;74.20;;;;;;5087111;27;19925;-70
2023/10/02 10:38:49;;;;;;;;;;;20.90;74.30;;;;;;5089053;28;20331;-71
2023/10/02 10:41:35;;;;;;;;;;;20.90;74.50;;;;;;5093499;28;19924;-72
2023/10/02 10:44:06;;;;;;;;;;;20.90;74.60;;;;;;5087050;28;19967;-71
2023/10/02 10:46:31;;;;;;;;;;;20.90;74.70;;;;;;5064611;28;20563;-70
2023/10/02 10:51:38;;;;;;;;;;;20.90;74.90;;;;;;5078894;27;19919;-72
2023/10/02 10:54:12;;;;;;;;;;;20.90;74.60;;;;;;5105394;28;20011;-72
2023/10/02 10:56:43;;;;;;;;;;;20.90;74.90;;;;;;5073932;28;19996;-71
2023/10/02 10:59:12;;;;;;;;;;;20.90;75.30;;;;;;5070457;28;19932;-70
2023/10/02 11:01:47;;;;;;;;;;;20.90;75.80;;;;;;5074419;28;19932;-72
2023/10/02 11:04:24;;;;;;;;;;;20.90;75.60;;;;;;5066155;28;19955;-70
2023/10/02 11:06:49;;;;;;;;;;;21.00;75.50;;;;;;5067926;28;19973;-71
2023/10/02 11:09:16;;;;;;;;;;;21.00;75.80;;;;;;5076210;28;20562;-70
2023/10/02 11:11:49;;;;;;;;;;;21.00;75.50;;;;;;5067443;28;20025;-70
2023/10/02 11:14:20;;;;;;;;;;;21.00;76.40;;;;;;5072049;28;21304;-74
2023/10/02 11:16:50;;;;;;;;;;;21.00;75.80;;;;;;5069177;28;19931;-74
2023/10/02 11:24:44;;;;;;;;;;;21.00;77.00;;;;;;5088131;27;19923;-73
2023/10/02 11:27:14;;;;;;;;;;;21.00;77.00;;;;;;5087245;28;19959;-71
2023/10/02 11:29:41;;;;;;;;;;;21.00;77.30;;;;;;5096424;28;19924;-71
2023/10/02 11:32:40;;;;;;;;;;;21.00;77.00;;;;;;5088864;28;20001;-71
2023/10/02 11:35:00;;;;;;;;;;;20.80;76.70;;;;;;5089749;28;19928;-72
2023/10/02 11:37:26;;;;;;;;;;;20.90;75.90;;;;;;5094710;28;19920;-72
2023/10/02 11:39:53;;;;;;;;;;;20.90;75.60;;;;;;5088930;28;20359;-71
2023/10/02 11:42:19;;;;;;;;;;;20.80;75.60;;;;;;5101215;28;19959;-71
2023/10/02 11:44:45;;;;;;;;;;;20.80;75.40;;;;;;5122054;27;19928;-71
2023/10/02 11:47:10;;;;;;;;;;;20.80;75.50;;;;;;5088377;28;19944;-71
2023/10/02 11:49:36;;;;;;;;;;;20.70;75.40;;;;;;5089764;28;20370;-72
2023/10/02 11:52:03;;;;;;;;;;;20.70;75.40;;;;;;5091259;28;19970;-71
2023/10/02 11:54:29;;;;;;;;;;;20.70;75.40;;;;;;5089409;27;20372;-72
2023/10/02 11:56:55;;;;;;;;;;;20.70;75.20;;;;;;5092004;28;20012;-72
2023/10/02 11:59:21;;;;;;;;;;;20.70;75.40;;;;;;5090331;28;20595;-71
2023/10/02 12:01:47;;;;;;;;;;;20.70;75.40;;;;;;5089674;28;20340;-71
2023/10/02 12:04:13;;;;;;;;;;;20.70;75.00;;;;;;5088288;28;19930;-71
2023/10/02 12:06:39;;;;;;;;;;;20.70;76.30;;;;;;5121833;27;19927;-71
2023/10/02 12:09:05;;;;;;;;;;;20.70;76.80;;;;;;5089433;28;19934;-70
2023/10/02 12:11:34;;;;;;;;;;;20.70;77.10;;;;;;5127406;27;20387;-73
2023/10/02 12:14:02;;;;;;;;;;;20.70;77.20;;;;;;5095666;28;20015;-71
2023/10/02 12:16:28;;;;;;;;;;;20.80;77.20;;;;;;5084038;28;19924;-73
2023/10/02 12:18:53;;;;;;;;;;;20.80;77.20;;;;;;5076091;28;19929;-73
2023/10/02 12:21:21;;;;;;;;;;;20.80;77.10;;;;;;5114235;27;19924;-70
2023/10/02 12:23:47;;;;;;;;;;;20.80;77.30;;;;;;5089996;28;20551;-76
2023/10/02 12:26:14;;;;;;;;;;;20.90;77.30;;;;;;5091578;28;19928;-75
2023/10/02 12:28:40;;;;;;;;;;;20.90;77.10;;;;;;5089367;28;20300;-72
2023/10/02 12:31:10;;;;;;;;;;;21.00;77.20;;;;;;5087498;28;20258;-70
2023/10/02 12:33:36;;;;;;;;;;;21.00;77.00;;;;;;5081376;28;19966;-71
2023/10/02 12:36:10;;;;;;;;;;;21.00;76.90;;;;;;5067447;28;19924;-75
2023/10/02 12:38:35;;;;;;;;;;;21.10;77.10;;;;;;5105930;27;19931;-75
2023/10/02 12:41:01;;;;;;;;;;;21.10;77.70;;;;;;5074775;28;19924;-74
2023/10/02 12:43:26;;;;;;;;;;;21.10;78.00;;;;;;5073352;28;20114;-80
2023/10/02 12:45:53;;;;;;;;;;;21.20;77.90;;;;;;5106126;27;19925;-73
2023/10/02 12:48:18;;;;;;;;;;;21.20;77.80;;;;;;5110030;27;19972;-75
2023/10/02 12:50:45;;;;;;;;;;;21.30;77.70;;;;;;5066748;28;19928;-72
2023/10/02 12:53:11;;;;;;;;;;;21.30;78.20;;;;;;5066584;28;19931;-79
2023/10/02 12:55:40;;;;;;;;;;;21.30;77.90;;;;;;5073191;28;19920;-71
2023/10/02 12:58:05;;;;;;;;;;;21.40;78.20;;;;;;5062242;28;19924;-71
2023/10/02 13:00:31;;;;;;;;;;;21.40;78.70;;;;;;5065880;28;20117;-70
2023/10/02 13:02:58;;;;;;;;;;;21.40;78.80;;;;;;5107102;27;19931;-71
2023/10/02 13:05:25;;;;;;;;;;;21.30;78.50;;;;;;5081238;28;20444;-71
2023/10/02 13:07:55;;;;;;;;;;;21.30;78.30;;;;;;5078625;28;20346;-72
2023/10/02 13:10:24;;;;;;;;;;;21.30;78.20;;;;;;5074251;28;19920;-71
2023/10/02 13:12:50;;;;;;;;;;;21.30;78.10;;;;;;5078607;28;20119;-71
2023/10/02 13:15:16;;;;;;;;;;;21.40;78.20;;;;;;5083481;28;19920;-72
2023/10/02 13:17:42;;;;;;;;;;;21.40;78.10;;;;;;5087586;28;19999;-71
2023/10/02 13:20:10;;;;;;;;;;;21.40;78.10;;;;;;5110328;27;20018;-72
2023/10/02 13:22:36;;;;;;;;;;;21.40;77.90;;;;;;5093567;28;20022;-72
2023/10/02 13:25:04;;;;;;;;;;;21.40;78.10;;;;;;5084750;28;19934;-73
2023/10/02 13:27:31;;;;;;;;;;;21.40;78.00;;;;;;5106993;27;19965;-72
2023/10/02 13:29:57;;;;;;;;;;;21.40;78.00;;;;;;5106684;27;19925;-71
2023/10/02 13:32:22;;;;;;;;;;;21.40;77.90;;;;;;5089392;28;20012;-71
2023/10/02 13:34:48;;;;;;;;;;;21.40;78.00;;;;;;5087898;28;19954;-71
2023/10/02 13:37:14;;;;;;;;;;;21.40;78.00;;;;;;5087512;28;20030;-71
2023/10/02 13:39:39;;;;;;;;;;;21.40;78.00;;;;;;5108602;28;19920;-71
2023/10/02 13:42:05;;;;;;;;;;;21.40;78.00;;;;;;5086883;28;19927;-71
2023/10/02 13:44:30;;;;;;;;;;;21.40;78.00;;;;;;5111434;27;19924;-72
2023/10/02 13:46:55;;;;;;;;;;;21.40;77.90;;;;;;5088159;28;19919;-71
2023/10/02 13:49:21;;;;;;;;;;;21.40;78.10;;;;;;5097942;28;20418;-73
2023/10/02 13:51:47;;;;;;;;;;;21.40;78.20;;;;;;5118350;27;19919;-76
2023/10/02 13:54:14;;;;;;;;;;;21.40;78.20;;;;;;5090470;28;19920;-73
2023/10/02 13:56:40;;;;;;;;;;;21.40;78.30;;;;;;5088961;28;19927;-72
2023/10/02 13:59:06;;;;;;;;;;;21.40;78.20;;;;;;5105660;28;19919;-70
2023/10/02 14:01:32;;;;;;;;;;;21.40;78.20;;;;;;5089403;28;19920;-72
2023/10/02 14:03:58;;;;;;;;;;;21.40;78.20;;;;;;5091238;28;19931;-72
2023/10/02 14:06:25;;;;;;;;;;;21.50;78.10;;;;;;5091363;28;19919;-73
2023/10/02 14:08:51;;;;;;;;;;;21.50;78.10;;;;;;5090179;28;19946;-73
2023/10/02 14:11:17;;;;;;;;;;;21.50;78.20;;;;;;5092536;28;19919;-73
2023/10/02 14:13:43;;;;;;;;;;;21.50;78.20;;;;;;5093135;28;19919;-74
2023/10/02 14:16:10;;;;;;;;;;;21.50;78.20;;;;;;5091929;28;19927;-74
2023/10/02 14:18:37;;;;;;;;;;;21.50;78.30;;;;;;5092961;28;20442;-74
2023/10/02 14:21:05;;;;;;;;;;;21.50;78.30;;;;;;5108994;28;20418;-74
2023/10/02 14:23:32;;;;;;;;;;;21.50;78.30;;;;;;5092391;28;19941;-73
2023/10/02 14:25:59;;;;;;;;;;;21.50;78.30;;;;;;5094351;28;20329;-72
2023/10/02 14:28:26;;;;;;;;;;;21.50;78.30;;;;;;5110620;28;20007;-74
2023/10/02 14:30:52;;;;;;;;;;;21.60;78.00;;;;;;5110126;28;20032;-74
2023/10/02 14:33:18;;;;;;;;;;;21.60;78.10;;;;;;5101527;27;20005;-74
2023/10/02 14:35:43;;;;;;;;;;;21.60;78.20;;;;;;5111403;27;19920;-76
2023/10/02 14:38:12;;;;;;;;;;;21.50;78.10;;;;;;5108271;28;20410;-75
2023/10/02 14:40:38;;;;;;;;;;;21.50;78.20;;;;;;5091624;28;19936;-76
2023/10/02 14:43:03;;;;;;;;;;;21.50;78.10;;;;;;5091546;28;20002;-72
2023/10/02 14:45:29;;;;;;;;;;;21.50;78.30;;;;;;5091824;28;19966;-72
2023/10/02 14:47:56;;;;;;;;;;;21.50;78.10;;;;;;5092077;28;19951;-72
2023/10/02 14:50:23;;;;;;;;;;;21.50;78.10;;;;;;5091441;28;19947;-72
2023/10/02 14:52:50;;;;;;;;;;;21.40;78.20;;;;;;5093191;28;20344;-71
2023/10/02 14:55:17;;;;;;;;;;;21.40;78.00;;;;;;5093832;28;20040;-72
2023/10/02 14:57:45;;;;;;;;;;;21.40;78.00;;;;;;5111686;28;20329;-72
2023/10/02 15:00:12;;;;;;;;;;;21.30;78.20;;;;;;5105148;28;19920;-72
2023/10/02 15:02:37;;;;;;;;;;;21.30;78.00;;;;;;5092502;28;19927;-72
2023/10/02 15:05:03;;;;;;;;;;;21.30;77.90;;;;;;5093970;28;19920;-72
2023/10/02 15:07:29;;;;;;;;;;;21.30;77.90;;;;;;5092659;28;19920;-72
2023/10/02 15:09:56;;;;;;;;;;;21.30;78.60;;;;;;5090984;28;19931;-72
2023/10/02 15:12:21;;;;;;;;;;;21.20;77.80;;;;;;5109582;28;20276;-71
2023/10/02 15:14:47;;;;;;;;;;;21.20;77.60;;;;;;5104996;28;20068;-71
2023/10/02 15:17:12;;;;;;;;;;;21.20;77.70;;;;;;5085522;28;20295;-71
2023/10/02 15:19:38;;;;;;;;;;;21.20;77.80;;;;;;5085384;28;19924;-71
2023/10/02 15:22:03;;;;;;;;;;;21.20;77.60;;;;;;5092802;28;19927;-71
2023/10/02 15:24:32;;;;;;;;;;;21.20;77.60;;;;;;5110226;28;20008;-71
2023/10/02 15:26:58;;;;;;;;;;;21.10;77.60;;;;;;5093013;28;20378;-71